Time;durP1;ratioP1;P1;durP2;ratioP2;P2;SDS_P1;SDS_P2;PMS_P1;PMS_P2;Temp;Humidity;BMP_temperature;BMP_pressure;BME280_temperature;BME280_humidity;BME280_pressure;Samples;Min_cycle;Max_cycle;Signal;HPM_P1;HPM_P2
2021/01/21 00:01:19;;;;;;;0.30;0.30;;;11.80;99.90;;;;;;5055692;28;20195;-76
2021/01/21 00:03:45;;;;;;;0.40;0.40;;;11.80;99.90;;;;;;5055789;28;20183;-76
2021/01/21 00:06:11;;;;;;;0.30;0.30;;;11.90;99.90;;;;;;5037755;28;20308;-78
2021/01/21 00:08:37;;;;;;;0.35;0.35;;;11.90;99.90;;;;;;5039533;28;20690;-77
2021/01/21 00:11:03;;;;;;;0.25;0.25;;;12.00;99.90;;;;;;5054322;28;20189;-77
2021/01/21 00:13:28;;;;;;;0.57;0.35;;;12.00;99.90;;;;;;5037595;28;20171;-77
2021/01/21 00:15:54;;;;;;;0.75;0.75;;;12.00;99.90;;;;;;5055548;28;20234;-77
2021/01/21 00:18:20;;;;;;;0.50;0.50;;;12.10;99.90;;;;;;5054828;28;20268;-76
2021/01/21 00:20:45;;;;;;;0.20;0.20;;;12.10;99.90;;;;;;5055145;28;20207;-77
2021/01/21 00:25:36;;;;;;;0.40;0.40;;;12.00;99.90;;;;;;5037276;28;20194;-77
2021/01/21 00:28:02;;;;;;;0.20;0.20;;;12.00;99.90;;;;;;5055056;28;20368;-76
2021/01/21 00:30:28;;;;;;;0.20;0.20;;;12.00;99.90;;;;;;5055051;28;20631;-77
2021/01/21 00:32:53;;;;;;;0.95;0.63;;;12.00;99.90;;;;;;5055084;28;20160;-77
2021/01/21 00:35:19;;;;;;;0.20;0.20;;;12.10;99.90;;;;;;5054102;28;20546;-76
2021/01/21 00:37:44;;;;;;;0.20;0.20;;;12.00;99.90;;;;;;5054548;28;20194;-77
2021/01/21 00:40:11;;;;;;;1.23;0.50;;;12.10;99.90;;;;;;5054991;28;20195;-77
2021/01/21 00:42:37;;;;;;;0.25;0.25;;;12.10;99.90;;;;;;5055450;28;20167;-77
2021/01/21 00:45:03;;;;;;;0.22;0.22;;;12.00;99.90;;;;;;5055766;28;20197;-76
2021/01/21 00:47:29;;;;;;;0.10;0.10;;;12.10;99.90;;;;;;5037360;28;20206;-77
2021/01/21 00:49:55;;;;;;;0.50;0.50;;;12.10;99.90;;;;;;5054193;28;20649;-76
2021/01/21 00:52:20;;;;;;;0.70;0.60;;;12.10;99.90;;;;;;5055115;28;20186;-77
2021/01/21 00:54:46;;;;;;;0.17;0.17;;;12.00;99.90;;;;;;5038264;28;20273;-77
2021/01/21 00:57:11;;;;;;;0.60;0.60;;;12.10;99.90;;;;;;5054051;28;20525;-76
2021/01/21 00:59:37;;;;;;;0.20;0.20;;;12.10;99.90;;;;;;5056952;28;20151;-77
2021/01/21 01:02:03;;;;;;;0.20;0.20;;;12.10;99.90;;;;;;5039316;28;20366;-76
2021/01/21 01:04:28;;;;;;;0.30;0.30;;;12.20;99.90;;;;;;5057637;28;20159;-75
2021/01/21 01:06:54;;;;;;;0.35;0.30;;;12.10;99.90;;;;;;5056439;28;20170;-76
2021/01/21 01:09:20;;;;;;;0.20;0.20;;;12.10;99.90;;;;;;5054713;28;20171;-76
2021/01/21 01:11:46;;;;;;;0.28;0.28;;;12.10;99.90;;;;;;5054733;28;20634;-76
2021/01/21 01:14:12;;;;;;;0.25;0.25;;;12.10;99.90;;;;;;5054664;28;20524;-76
2021/01/21 01:16:37;;;;;;;0.15;0.15;;;12.10;99.90;;;;;;5054343;28;20187;-77
2021/01/21 01:19:03;;;;;;;3.05;1.05;;;12.10;99.90;;;;;;5059828;28;20194;-76
2021/01/21 01:21:29;;;;;;;0.20;0.20;;;12.20;99.90;;;;;;5043504;28;20266;-76
2021/01/21 01:23:54;;;;;;;0.32;0.32;;;12.20;99.90;;;;;;5032984;28;20175;-77
2021/01/21 01:26:20;;;;;;;0.20;0.20;;;12.20;99.90;;;;;;5051372;28;20274;-76
2021/01/21 01:28:47;;;;;;;0.20;0.20;;;12.30;99.90;;;;;;5051716;28;20675;-77
2021/01/21 01:31:12;;;;;;;0.30;0.30;;;12.20;99.90;;;;;;5053248;28;20159;-75
2021/01/21 01:33:38;;;;;;;0.20;0.20;;;12.10;99.90;;;;;;5053177;28;20241;-75
2021/01/21 01:36:05;;;;;;;0.47;0.47;;;12.00;99.90;;;;;;5053146;28;20218;-75
2021/01/21 01:38:30;;;;;;;0.85;0.45;;;11.90;99.90;;;;;;5053020;28;20227;-77
2021/01/21 01:40:56;;;;;;;0.20;0.20;;;11.60;99.90;;;;;;5053040;28;20207;-75
2021/01/21 01:43:21;;;;;;;0.35;0.25;;;11.40;99.90;;;;;;5035391;28;20167;-75
2021/01/21 01:45:47;;;;;;;0.20;0.20;;;11.30;99.90;;;;;;5035146;28;20656;-75
2021/01/21 01:48:13;;;;;;;0.73;0.73;;;11.20;99.90;;;;;;5053111;28;20171;-76
2021/01/21 01:50:39;;;;;;;8.68;1.80;;;11.20;99.90;;;;;;5053667;28;20175;-76
2021/01/21 01:53:06;;;;;;;0.20;0.20;;;11.20;99.90;;;;;;5053764;28;20190;-75
2021/01/21 01:55:32;;;;;;;0.10;0.10;;;11.20;99.90;;;;;;5036510;28;20187;-77
2021/01/21 01:57:58;;;;;;;3.72;2.25;;;11.20;99.90;;;;;;5053361;28;20159;-76
2021/01/21 02:00:24;;;;;;;0.47;0.47;;;11.30;99.90;;;;;;5036315;28;20203;-76
2021/01/21 02:02:51;;;;;;;0.20;0.20;;;11.30;99.90;;;;;;5054277;28;20637;-76
2021/01/21 02:05:20;;;;;;;0.90;0.90;;;11.30;99.90;;;;;;5053433;28;20186;-76
2021/01/21 02:07:47;;;;;;;0.30;0.30;;;11.30;99.90;;;;;;5054044;28;20174;-78
2021/01/21 02:10:15;;;;;;;0.75;0.50;;;11.30;99.90;;;;;;5055984;28;20191;-77
2021/01/21 02:13:10;;;;;;;0.28;0.28;;;11.30;99.90;;;;;;5054149;28;20262;-77
2021/01/21 02:15:53;;;;;;;0.20;0.20;;;11.30;99.90;;;;;;5055646;28;20187;-76
2021/01/21 02:18:57;;;;;;;0.30;0.30;;;11.40;99.90;;;;;;5056320;28;20215;-76
2021/01/21 02:21:34;;;;;;;11.50;0.63;;;11.40;99.90;;;;;;5059294;28;20207;-76
2021/01/21 02:24:30;;;;;;;0.20;0.20;;;11.40;99.90;;;;;;5057515;28;20163;-77
2021/01/21 02:27:04;;;;;;;0.40;0.40;;;11.30;99.90;;;;;;5055771;28;20190;-76
2021/01/21 02:29:37;;;;;;;0.30;0.30;;;11.40;99.90;;;;;;5055461;28;20190;-76
2021/01/21 02:32:31;;;;;;;0.20;0.20;;;11.40;99.90;;;;;;5049858;28;20170;-76
2021/01/21 02:34:59;;;;;;;0.43;0.30;;;11.30;99.90;;;;;;5037120;28;20195;-77
2021/01/21 02:37:27;;;;;;;0.20;0.20;;;11.20;99.90;;;;;;5054723;28;20167;-76
2021/01/21 02:39:55;;;;;;;2.72;0.45;;;11.10;99.90;;;;;;5054798;28;20159;-77
2021/01/21 02:42:21;;;;;;;0.20;0.20;;;11.10;99.90;;;;;;5039893;28;20171;-77
2021/01/21 02:44:49;;;;;;;0.35;0.35;;;11.00;99.90;;;;;;5057491;28;20232;-77
2021/01/21 02:47:17;;;;;;;0.20;0.20;;;11.00;99.90;;;;;;5058505;28;20182;-77
2021/01/21 02:49:45;;;;;;;0.45;0.45;;;11.00;99.90;;;;;;5057540;28;20155;-77
2021/01/21 02:52:33;;;;;;;1.00;0.40;;;10.90;99.90;;;;;;5056903;28;20175;-77
2021/01/21 02:55:24;;;;;;;0.20;0.20;;;10.80;99.90;;;;;;5059878;28;20651;-76
2021/01/21 02:58:01;;;;;;;0.20;0.20;;;10.80;99.90;;;;;;5040371;28;20178;-76
2021/01/21 03:00:29;;;;;;;0.20;0.20;;;10.90;99.90;;;;;;5039341;28;20194;-76
2021/01/21 03:03:07;;;;;;;0.40;0.40;;;11.00;99.90;;;;;;5038199;28;20187;-75
2021/01/21 03:05:33;;;;;;;0.22;0.22;;;11.00;99.90;;;;;;5055932;28;20593;-75
2021/01/21 03:08:00;;;;;;;0.20;0.20;;;11.10;99.90;;;;;;5055841;28;20155;-76
2021/01/21 03:10:27;;;;;;;1.40;0.40;;;11.20;99.90;;;;;;5055843;28;20155;-75
2021/01/21 03:12:56;;;;;;;0.10;0.10;;;11.20;99.90;;;;;;5045513;28;20214;-76
2021/01/21 03:15:25;;;;;;;0.50;0.50;;;11.20;99.90;;;;;;5058888;28;20183;-76
2021/01/21 03:17:51;;;;;;;0.20;0.20;;;10.70;99.90;;;;;;5040415;28;20698;-77
2021/01/21 03:20:20;;;;;;;0.30;0.30;;;9.90;99.90;;;;;;5038270;28;20241;-76
2021/01/21 03:22:46;;;;;;;0.20;0.20;;;9.30;99.90;;;;;;5041324;28;20230;-77
2021/01/21 03:25:12;;;;;;;0.13;0.13;;;8.90;99.90;;;;;;5059891;28;20190;-76
2021/01/21 03:27:38;;;;;;;0.60;0.60;;;8.70;99.90;;;;;;5058512;28;20167;-76
2021/01/21 03:30:05;;;;;;;0.20;0.20;;;8.60;99.90;;;;;;5057428;28;20160;-76
2021/01/21 03:32:30;;;;;;;0.10;0.10;;;8.50;99.90;;;;;;5055703;28;20665;-76
2021/01/21 03:34:56;;;;;;;0.52;0.52;;;8.50;99.90;;;;;;5055296;28;20183;-76
2021/01/21 03:37:22;;;;;;;0.38;0.38;;;8.40;99.90;;;;;;5037563;28;20170;-76
2021/01/21 03:39:47;;;;;;;0.10;0.10;;;8.40;99.90;;;;;;5055523;28;20156;-76
2021/01/21 03:42:13;;;;;;;0.10;0.10;;;8.30;99.90;;;;;;5066667;28;20159;-77
2021/01/21 03:44:38;;;;;;;0.20;0.20;;;8.20;99.90;;;;;;5072268;28;20140;-76
2021/01/21 03:47:04;;;;;;;0.10;0.10;;;8.10;99.90;;;;;;5072491;28;20190;-77
2021/01/21 03:49:29;;;;;;;0.10;0.10;;;8.10;99.90;;;;;;5058859;28;20160;-77
2021/01/21 03:51:55;;;;;;;0.10;0.10;;;8.10;99.90;;;;;;5056297;28;20172;-77
2021/01/21 03:54:21;;;;;;;0.10;0.10;;;8.10;99.90;;;;;;5055026;28;20177;-76
2021/01/21 03:56:46;;;;;;;0.10;0.10;;;8.10;99.90;;;;;;5055934;28;20195;-75
2021/01/21 03:59:12;;;;;;;3.50;1.20;;;8.10;99.90;;;;;;5056857;28;20167;-75
2021/01/21 04:01:37;;;;;;;0.20;0.20;;;8.10;99.90;;;;;;5039011;28;20221;-77
2021/01/21 04:04:03;;;;;;;0.20;0.20;;;8.10;99.90;;;;;;5056885;28;20159;-78
2021/01/21 04:06:28;;;;;;;0.20;0.20;;;8.10;99.90;;;;;;5057050;28;20530;-76
2021/01/21 04:08:54;;;;;;;1.02;0.65;;;8.10;99.90;;;;;;5056656;28;20167;-76
2021/01/21 04:11:21;;;;;;;0.10;0.10;;;7.90;99.90;;;;;;5057290;28;20242;-77
2021/01/21 04:13:47;;;;;;;0.20;0.20;;;7.90;99.90;;;;;;5057357;28;20149;-76
2021/01/21 04:16:12;;;;;;;0.10;0.10;;;7.80;99.90;;;;;;5040010;28;20576;-78
2021/01/21 04:18:38;;;;;;;0.10;0.10;;;7.90;99.90;;;;;;5056811;28;20211;-76
2021/01/21 04:21:03;;;;;;;0.10;0.10;;;7.80;99.90;;;;;;5057638;28;20214;-76
2021/01/21 04:23:29;;;;;;;0.13;0.13;;;7.80;99.90;;;;;;5057357;28;20163;-77
2021/01/21 04:25:54;;;;;;;0.10;0.10;;;7.70;99.90;;;;;;5048560;28;20258;-77
2021/01/21 04:30:59;;;;;;;0.10;0.10;;;7.90;99.90;;;;;;5033601;28;20215;-77
2021/01/21 04:33:25;;;;;;;0.10;0.10;;;7.80;99.90;;;;;;5016841;28;20175;-76
2021/01/21 04:35:51;;;;;;;0.10;0.10;;;7.90;99.90;;;;;;5046157;28;20195;-77
2021/01/21 04:38:17;;;;;;;0.10;0.10;;;7.90;99.90;;;;;;5054384;28;20615;-77
2021/01/21 04:40:44;;;;;;;0.20;0.20;;;7.90;99.90;;;;;;5054279;28;20245;-76
2021/01/21 04:43:09;;;;;;;0.10;0.10;;;7.90;99.90;;;;;;5054156;28;20162;-76
2021/01/21 04:45:35;;;;;;;0.20;0.20;;;7.80;99.90;;;;;;5054110;28;20546;-77
2021/01/21 04:48:01;;;;;;;0.10;0.10;;;7.90;99.90;;;;;;5036418;28;20175;-77
2021/01/21 04:50:28;;;;;;;0.10;0.10;;;8.00;99.90;;;;;;5054286;28;20239;-77
2021/01/21 04:52:57;;;;;;;0.10;0.10;;;8.10;99.90;;;;;;5036776;28;20253;-77
2021/01/21 04:55:30;;;;;;;0.20;0.20;;;8.00;99.90;;;;;;5054183;28;20233;-77
2021/01/21 04:58:17;;;;;;;0.47;0.47;;;7.90;99.90;;;;;;5054232;28;20160;-77
2021/01/21 05:00:44;;;;;;;0.10;0.10;;;7.90;99.90;;;;;;5054257;28;20550;-77
2021/01/21 05:03:11;;;;;;;0.10;0.10;;;8.00;99.90;;;;;;5053598;28;20155;-77
2021/01/21 05:05:37;;;;;;;0.20;0.20;;;8.00;99.90;;;;;;5053658;28;20218;-77
2021/01/21 05:08:04;;;;;;;0.20;0.20;;;7.90;99.90;;;;;;5053817;28;20202;-76
2021/01/21 05:10:30;;;;;;;0.10;0.10;;;7.90;99.90;;;;;;5053828;28;20670;-76
2021/01/21 05:12:56;;;;;;;0.10;0.10;;;8.00;99.90;;;;;;5054013;28;20250;-77
2021/01/21 05:15:22;;;;;;;0.10;0.10;;;8.00;99.90;;;;;;5053681;28;20243;-77
2021/01/21 05:17:47;;;;;;;0.10;0.10;;;7.80;99.90;;;;;;5053870;28;20676;-77
2021/01/21 05:20:13;;;;;;;0.10;0.10;;;7.80;99.90;;;;;;5053492;28;20198;-77
2021/01/21 05:22:39;;;;;;;0.20;0.20;;;7.70;99.90;;;;;;5053630;28;20217;-77
2021/01/21 05:25:06;;;;;;;0.40;0.40;;;7.70;99.90;;;;;;5053559;28;20261;-76
2021/01/21 05:27:32;;;;;;;0.50;0.50;;;7.70;99.90;;;;;;5053687;28;20721;-76
2021/01/21 05:30:03;;;;;;;0.52;0.52;;;7.70;99.90;;;;;;5053294;28;20222;-77
2021/01/21 05:32:29;;;;;;;0.40;0.40;;;7.70;99.90;;;;;;5035563;28;20171;-77
2021/01/21 05:34:55;;;;;;;4.32;1.15;;;7.80;99.90;;;;;;5045209;28;20187;-77
2021/01/21 05:37:21;;;;;;;2.50;1.65;;;7.60;99.90;;;;;;5053309;28;20170;-77
2021/01/21 05:39:46;;;;;;;0.20;0.20;;;7.50;99.90;;;;;;5053345;28;20701;-76
2021/01/21 05:42:13;;;;;;;0.93;0.90;;;7.50;99.90;;;;;;5053248;28;20252;-76
2021/01/21 05:44:39;;;;;;;0.60;0.47;;;7.50;99.90;;;;;;5053266;28;20174;-77
2021/01/21 05:47:07;;;;;;;1.48;0.68;;;7.60;99.90;;;;;;5053238;28;20156;-77
2021/01/21 05:49:33;;;;;;;0.10;0.10;;;7.60;99.90;;;;;;5053109;28;20160;-77
2021/01/21 05:51:59;;;;;;;0.10;0.10;;;7.60;99.90;;;;;;5052938;28;20641;-76
2021/01/21 05:54:27;;;;;;;0.40;0.40;;;7.60;99.90;;;;;;5053291;28;20172;-76
2021/01/21 05:56:55;;;;;;;3.40;1.27;;;7.70;99.90;;;;;;5052942;28;20151;-77
2021/01/21 05:59:24;;;;;;;0.20;0.20;;;7.90;99.90;;;;;;5035251;28;20211;-76
2021/01/21 06:01:52;;;;;;;0.25;0.25;;;7.90;99.90;;;;;;5053114;28;20213;-77
2021/01/21 06:04:18;;;;;;;3.92;0.50;;;7.90;99.90;;;;;;5052902;28;20159;-77
2021/01/21 06:06:44;;;;;;;0.30;0.30;;;8.00;99.90;;;;;;5052948;28;20194;-78
2021/01/21 06:09:15;;;;;;;0.65;0.60;;;7.90;99.90;;;;;;5053050;28;20163;-78
2021/01/21 06:11:43;;;;;;;2.20;1.33;;;7.80;99.90;;;;;;5053253;28;20173;-77
2021/01/21 06:14:10;;;;;;;0.20;0.20;;;7.60;99.90;;;;;;5053255;28;20232;-77
2021/01/21 06:16:37;;;;;;;0.10;0.10;;;7.60;99.90;;;;;;5056427;28;20191;-77
2021/01/21 06:19:03;;;;;;;3.72;0.90;;;7.60;99.90;;;;;;5039268;28;20525;-77
2021/01/21 06:21:34;;;;;;;1.70;0.52;;;7.60;99.90;;;;;;5039336;28;20199;-77
2021/01/21 06:24:04;;;;;;;0.35;0.35;;;7.80;99.90;;;;;;5056964;28;20723;-77
2021/01/21 06:26:44;;;;;;;0.17;0.17;;;7.80;99.90;;;;;;5038855;28;20207;-77
2021/01/21 06:29:14;;;;;;;0.30;0.30;;;7.90;99.90;;;;;;5056690;28;20219;-77
2021/01/21 06:31:41;;;;;;;0.40;0.40;;;7.90;99.90;;;;;;5039019;28;20171;-77
2021/01/21 06:34:11;;;;;;;0.20;0.20;;;7.90;99.90;;;;;;5056754;28;20160;-77
2021/01/21 06:36:42;;;;;;;1.48;1.48;;;7.90;99.90;;;;;;5056563;28;20233;-77
2021/01/21 06:39:12;;;;;;;0.28;0.28;;;7.70;99.90;;;;;;5056722;28;20726;-76
2021/01/21 06:41:42;;;;;;;8.07;2.28;;;7.60;99.90;;;;;;5056847;28;20199;-77
2021/01/21 06:44:10;;;;;;;0.28;0.28;;;7.50;99.90;;;;;;5056786;28;20167;-77
2021/01/21 06:46:36;;;;;;;0.20;0.20;;;7.50;99.90;;;;;;5056465;28;20542;-77
2021/01/21 06:49:02;;;;;;;0.20;0.20;;;7.50;99.90;;;;;;5056553;28;20156;-77
2021/01/21 06:51:28;;;;;;;0.25;0.25;;;7.60;99.90;;;;;;5056421;28;20171;-77
2021/01/21 06:53:54;;;;;;;1.75;0.60;;;7.50;99.90;;;;;;5055843;28;20195;-77
2021/01/21 06:56:30;;;;;;;0.55;0.55;;;7.50;99.90;;;;;;5055600;28;20183;-77
2021/01/21 06:58:55;;;;;;;5.53;0.90;;;7.50;99.90;;;;;;5055928;28;20182;-77
2021/01/21 07:01:30;;;;;;;0.30;0.30;;;7.50;99.90;;;;;;5037632;28;20203;-77
2021/01/21 07:03:59;;;;;;;0.20;0.20;;;7.50;99.90;;;;;;5055813;28;20674;-78
2021/01/21 07:06:24;;;;;;;0.17;0.17;;;7.70;99.90;;;;;;5055855;28;20186;-77
2021/01/21 07:09:07;;;;;;;0.68;0.68;;;7.60;99.90;;;;;;5055970;28;20289;-77
2021/01/21 07:11:34;;;;;;;0.77;0.77;;;7.60;99.90;;;;;;5056157;28;20186;-77
2021/01/21 07:14:00;;;;;;;0.20;0.20;;;7.50;99.90;;;;;;5055981;28;20171;-77
2021/01/21 07:16:26;;;;;;;0.20;0.20;;;7.40;99.90;;;;;;5055700;28;20202;-76
2021/01/21 07:18:52;;;;;;;0.60;0.60;;;7.50;99.90;;;;;;5056039;28;20516;-77
2021/01/21 07:21:24;;;;;;;0.30;0.30;;;7.50;99.90;;;;;;5054398;28;20207;-77
2021/01/21 07:23:56;;;;;;;32.65;1.05;;;7.60;99.90;;;;;;5055818;28;20155;-77
2021/01/21 07:26:30;;;;;;;0.20;0.20;;;7.70;99.90;;;;;;5036859;28;20764;-77
2021/01/21 07:29:15;;;;;;;0.20;0.20;;;7.70;99.90;;;;;;5054931;28;20219;-78
2021/01/21 07:31:52;;;;;;;0.10;0.10;;;7.80;99.90;;;;;;5037384;28;20177;-76
2021/01/21 07:34:43;;;;;;;0.20;0.20;;;7.80;99.90;;;;;;5055149;28;20167;-76
2021/01/21 07:37:29;;;;;;;0.10;0.10;;;7.80;99.90;;;;;;5055334;28;20155;-76
2021/01/21 07:39:56;;;;;;;0.28;0.28;;;8.00;99.90;;;;;;5055080;28;20261;-77
2021/01/21 07:42:23;;;;;;;0.15;0.15;;;8.00;99.90;;;;;;5055239;28;20207;-77
2021/01/21 07:44:53;;;;;;;0.10;0.10;;;7.90;99.90;;;;;;5055184;28;20595;-77
2021/01/21 07:47:35;;;;;;;0.35;0.35;;;7.90;99.90;;;;;;5055317;28;20666;-77
2021/01/21 07:50:16;;;;;;;0.88;0.88;;;7.90;99.90;;;;;;5055259;28;20167;-76
2021/01/21 07:52:43;;;;;;;1.23;0.43;;;7.80;99.90;;;;;;5055154;28;20242;-77
2021/01/21 07:55:09;;;;;;;0.20;0.20;;;7.80;99.90;;;;;;5054928;28;20183;-77
2021/01/21 07:57:35;;;;;;;0.50;0.50;;;7.90;99.90;;;;;;5055178;28;20167;-78
2021/01/21 08:00:04;;;;;;;0.80;0.80;;;8.00;99.90;;;;;;5055497;28;20193;-77
2021/01/21 08:02:42;;;;;;;0.52;0.52;;;8.00;99.90;;;;;;5054822;28;20735;-77
2021/01/21 08:05:09;;;;;;;1.65;1.00;;;8.00;99.90;;;;;;5048347;28;20186;-75
2021/01/21 08:07:56;;;;;;;0.20;0.20;;;7.90;99.90;;;;;;5055226;28;20168;-76
2021/01/21 08:10:30;;;;;;;0.30;0.30;;;8.00;99.90;;;;;;5054709;28;20164;-76
2021/01/21 08:13:02;;;;;;;0.10;0.10;;;8.00;99.90;;;;;;5054584;28;20246;-77
2021/01/21 08:15:29;;;;;;;0.10;0.10;;;8.00;99.90;;;;;;5054776;28;20266;-76
2021/01/21 08:17:56;;;;;;;0.13;0.13;;;7.90;99.90;;;;;;5054553;28;20197;-77
2021/01/21 08:20:23;;;;;;;21.08;0.90;;;7.90;99.90;;;;;;5054542;28;20206;-77
2021/01/21 08:22:59;;;;;;;26.05;1.33;;;7.90;99.90;;;;;;5054562;28;20246;-78
2021/01/21 08:25:38;;;;;;;0.10;0.10;;;8.00;99.90;;;;;;5036458;28;20190;-77
2021/01/21 08:28:04;;;;;;;0.10;0.10;;;8.00;99.90;;;;;;5054253;28;20555;-78
2021/01/21 08:30:30;;;;;;;0.10;0.10;;;8.00;99.90;;;;;;5054054;28;20223;-77
2021/01/21 08:32:59;;;;;;;0.60;0.60;;;7.90;99.90;;;;;;5054043;28;20562;-74
2021/01/21 08:35:33;;;;;;;0.38;0.38;;;8.10;99.90;;;;;;5035636;28;20295;-77
2021/01/21 08:37:59;;;;;;;0.32;0.32;;;8.10;99.90;;;;;;5044839;28;20649;-75
2021/01/21 08:40:26;;;;;;;0.10;0.10;;;8.10;99.90;;;;;;5042907;28;20194;-78
2021/01/21 08:42:53;;;;;;;0.10;0.10;;;7.90;99.90;;;;;;5047838;28;20159;-77
2021/01/21 08:45:21;;;;;;;0.15;0.15;;;7.80;99.90;;;;;;5053779;28;20730;-77
2021/01/21 08:47:49;;;;;;;0.10;0.10;;;7.80;99.90;;;;;;5054067;28;20658;-75
2021/01/21 08:50:17;;;;;;;0.65;0.65;;;7.80;99.90;;;;;;5035909;28;20175;-77
2021/01/21 08:53:19;;;;;;;0.10;0.10;;;7.70;99.90;;;;;;5053000;28;20171;-77
2021/01/21 08:55:51;;;;;;;0.10;0.10;;;7.70;99.90;;;;;;5002663;28;20203;-79
2021/01/21 08:58:18;;;;;;;0.10;0.10;;;7.70;99.90;;;;;;5033863;28;20490;-78
2021/01/21 09:01:02;;;;;;;0.43;0.43;;;7.90;99.90;;;;;;5034115;28;20207;-77
2021/01/21 09:03:38;;;;;;;0.55;0.55;;;7.80;99.90;;;;;;5033748;28;20164;-78
2021/01/21 09:06:05;;;;;;;0.10;0.10;;;7.80;99.90;;;;;;5033564;28;20203;-75
2021/01/21 09:08:32;;;;;;;0.20;0.20;;;7.90;99.90;;;;;;5033584;28;20164;-79
2021/01/21 09:10:59;;;;;;;0.20;0.20;;;7.90;99.90;;;;;;5033550;28;20160;-76
2021/01/21 09:13:25;;;;;;;0.10;0.10;;;7.90;99.90;;;;;;5033200;28;20529;-76
2021/01/21 09:15:55;;;;;;;0.10;0.10;;;8.10;99.90;;;;;;5033375;28;20191;-76
2021/01/21 09:18:23;;;;;;;0.50;0.50;;;8.10;99.90;;;;;;5033459;28;20267;-77
2021/01/21 09:20:49;;;;;;;0.40;0.40;;;8.00;99.90;;;;;;5033393;28;20201;-77
2021/01/21 09:23:20;;;;;;;0.20;0.20;;;8.00;99.90;;;;;;5015583;28;20166;-76
2021/01/21 09:25:47;;;;;;;0.88;0.88;;;8.00;99.90;;;;;;5033102;28;20269;-77
2021/01/21 09:28:13;;;;;;;0.20;0.20;;;8.00;99.90;;;;;;5033306;28;20164;-77
2021/01/21 09:30:40;;;;;;;0.25;0.25;;;7.90;99.90;;;;;;5033089;28;20250;-77
2021/01/21 09:33:06;;;;;;;4.40;0.95;;;7.90;99.90;;;;;;5033665;28;20172;-75
2021/01/21 09:35:32;;;;;;;0.15;0.15;;;7.90;99.90;;;;;;5033028;28;20225;-76
2021/01/21 09:37:59;;;;;;;0.20;0.20;;;8.10;99.90;;;;;;5033231;28;20213;-77
2021/01/21 09:40:28;;;;;;;0.40;0.40;;;8.20;99.90;;;;;;5033244;28;20609;-77
2021/01/21 09:42:57;;;;;;;0.20;0.20;;;8.30;99.90;;;;;;5033214;28;20290;-75
2021/01/21 09:45:24;;;;;;;0.20;0.20;;;8.40;99.90;;;;;;5015304;28;20270;-75
2021/01/21 09:47:50;;;;;;;0.10;0.10;;;8.50;99.90;;;;;;5032965;28;20619;-74
2021/01/21 09:50:17;;;;;;;0.10;0.10;;;8.40;99.90;;;;;;5014682;28;20531;-75
2021/01/21 09:52:42;;;;;;;0.17;0.17;;;8.50;99.90;;;;;;5032954;28;20168;-77
2021/01/21 09:55:09;;;;;;;0.10;0.10;;;8.60;99.90;;;;;;5032871;28;20191;-77
2021/01/21 09:57:34;;;;;;;0.10;0.10;;;8.60;99.90;;;;;;5033036;28;20218;-77
2021/01/21 10:00:00;;;;;;;0.30;0.30;;;8.60;99.90;;;;;;5016130;28;20179;-76
2021/01/21 10:02:26;;;;;;;6.13;1.75;;;8.60;99.90;;;;;;5032123;28;20286;-77
2021/01/21 10:04:52;;;;;;;0.30;0.30;;;8.70;99.90;;;;;;5035396;28;20249;-76
2021/01/21 10:07:17;;;;;;;0.77;0.77;;;8.80;99.90;;;;;;5032918;28;20223;-77
2021/01/21 10:09:43;;;;;;;0.10;0.10;;;9.00;99.90;;;;;;5032867;28;20170;-77
2021/01/21 10:12:09;;;;;;;1.65;0.88;;;8.90;99.90;;;;;;5015019;28;20225;-77
2021/01/21 10:14:35;;;;;;;0.20;0.20;;;8.80;99.90;;;;;;5015215;28;20211;-76
2021/01/21 10:17:07;;;;;;;0.30;0.30;;;8.80;99.90;;;;;;5037208;28;20587;-76
2021/01/21 10:19:33;;;;;;;0.38;0.38;;;8.90;99.90;;;;;;5036192;28;20175;-76
2021/01/21 10:21:59;;;;;;;0.15;0.15;;;8.90;99.90;;;;;;5053530;28;20207;-76
2021/01/21 10:24:25;;;;;;;0.20;0.20;;;9.10;99.90;;;;;;5052503;28;20238;-76
2021/01/21 10:26:51;;;;;;;0.15;0.15;;;9.10;99.90;;;;;;5052438;28;20183;-76
2021/01/21 10:29:18;;;;;;;0.20;0.20;;;8.90;99.90;;;;;;5052358;28;20704;-76
2021/01/21 10:31:44;;;;;;;0.43;0.43;;;8.90;99.90;;;;;;5052624;28;20535;-77
2021/01/21 10:34:10;;;;;;;0.60;0.60;;;9.00;99.90;;;;;;5052633;28;20163;-76
2021/01/21 10:36:36;;;;;;;0.20;0.20;;;9.00;99.90;;;;;;5052738;28;20236;-78
2021/01/21 10:39:03;;;;;;;0.28;0.28;;;9.10;99.90;;;;;;5034044;28;20159;-76
2021/01/21 10:41:29;;;;;;;0.20;0.20;;;9.10;99.90;;;;;;5049699;28;20242;-77
2021/01/21 10:43:54;;;;;;;0.10;0.10;;;9.10;99.90;;;;;;5051597;28;20155;-81
2021/01/21 10:46:20;;;;;;;1.00;0.90;;;9.10;99.90;;;;;;5051855;28;20207;-76
2021/01/21 10:48:46;;;;;;;0.68;0.68;;;9.10;99.90;;;;;;5051721;28;20160;-76
2021/01/21 10:51:11;;;;;;;0.20;0.20;;;9.20;99.90;;;;;;5052297;28;20174;-76
2021/01/21 10:53:37;;;;;;;5.22;0.80;;;9.10;99.90;;;;;;5052147;28;20611;-76
2021/01/21 10:56:03;;;;;;;0.10;0.10;;;9.10;99.90;;;;;;5052239;28;20266;-76
2021/01/21 11:01:03;;;;;;;0.20;0.20;;;9.00;99.90;;;;;;4991290;28;20232;-75
2021/01/21 11:03:29;;;;;;;0.10;0.10;;;9.10;99.90;;;;;;4980155;28;20180;-76
2021/01/21 11:05:55;;;;;;;0.20;0.20;;;9.20;99.90;;;;;;5005946;28;20220;-76
2021/01/21 11:08:20;;;;;;;0.20;0.20;;;9.10;99.90;;;;;;5012298;28;20606;-75
2021/01/21 11:10:46;;;;;;;0.68;0.68;;;9.20;99.90;;;;;;5009056;28;20158;-75
2021/01/21 11:13:17;;;;;;;1.30;1.30;;;9.30;99.90;;;;;;5013594;28;20187;-76
2021/01/21 11:15:43;;;;;;;0.63;0.63;;;9.20;99.90;;;;;;5016544;28;20189;-76
2021/01/21 11:18:09;;;;;;;0.20;0.20;;;9.30;99.90;;;;;;5015977;28;20183;-76
2021/01/21 11:20:39;;;;;;;0.28;0.28;;;9.50;99.90;;;;;;5016147;28;20562;-76
2021/01/21 11:23:04;;;;;;;0.20;0.20;;;9.70;99.90;;;;;;4992262;28;20165;-77
2021/01/21 11:25:30;;;;;;;0.40;0.40;;;9.60;99.90;;;;;;5014461;28;20259;-76
2021/01/21 11:27:56;;;;;;;0.30;0.30;;;9.50;99.90;;;;;;5013548;28;20639;-76
2021/01/21 11:30:22;;;;;;;0.25;0.25;;;9.40;99.90;;;;;;5014773;28;20180;-76
2021/01/21 11:32:47;;;;;;;0.35;0.35;;;9.40;99.90;;;;;;5013815;28;20181;-76
2021/01/21 11:35:13;;;;;;;0.30;0.30;;;9.50;99.90;;;;;;5014820;28;20284;-75
2021/01/21 11:37:39;;;;;;;6.03;2.05;;;9.40;99.90;;;;;;5015351;28;20168;-76
2021/01/21 11:40:06;;;;;;;0.57;0.57;;;9.40;99.90;;;;;;4996991;28;20208;-76
2021/01/21 11:42:32;;;;;;;0.50;0.50;;;9.40;99.90;;;;;;5005157;28;20177;-77
2021/01/21 11:44:59;;;;;;;0.28;0.28;;;9.40;99.90;;;;;;4996396;28;20200;-77
2021/01/21 11:47:25;;;;;;;0.20;0.20;;;9.60;99.90;;;;;;4995366;28;20153;-76
2021/01/21 11:49:50;;;;;;;0.17;0.17;;;9.70;99.90;;;;;;4995586;28;20621;-77
2021/01/21 11:52:16;;;;;;;0.35;0.35;;;9.70;99.90;;;;;;4999119;28;20173;-76
2021/01/21 11:54:41;;;;;;;0.20;0.20;;;9.70;99.90;;;;;;5000455;28;20169;-77
2021/01/21 11:57:08;;;;;;;0.50;0.50;;;9.50;99.90;;;;;;4997408;28;20169;-75
2021/01/21 11:59:36;;;;;;;0.73;0.73;;;9.50;99.90;;;;;;5008636;28;20256;-75
2021/01/21 12:02:02;;;;;;;0.20;0.20;;;9.60;99.90;;;;;;5017616;28;20211;-77
2021/01/21 12:04:27;;;;;;;0.43;0.43;;;9.60;99.90;;;;;;5017072;28;20165;-75
2021/01/21 12:06:53;;;;;;;0.20;0.20;;;9.60;99.90;;;;;;5018422;28;20161;-76
2021/01/21 12:09:18;;;;;;;1.02;0.95;;;9.40;99.90;;;;;;5017208;28;20168;-76
2021/01/21 12:11:44;;;;;;;0.10;0.10;;;9.40;99.90;;;;;;5019206;28;20168;-74
2021/01/21 12:14:09;;;;;;;0.20;0.20;;;9.50;99.90;;;;;;5019561;28;21118;-75
2021/01/21 12:16:35;;;;;;;0.52;0.45;;;9.40;99.90;;;;;;5014977;28;20247;-75
2021/01/21 12:19:03;;;;;;;2.72;1.05;;;9.50;99.90;;;;;;5016720;28;20176;-77
2021/01/21 12:21:33;;;;;;;0.40;0.40;;;9.40;99.90;;;;;;4998858;28;20291;-80
2021/01/21 12:23:58;;;;;;;0.50;0.50;;;9.40;99.90;;;;;;5014998;28;20223;-79
2021/01/21 12:26:25;;;;;;;0.15;0.15;;;9.40;99.90;;;;;;5016976;28;20192;-77
2021/01/21 12:28:50;;;;;;;0.10;0.10;;;9.60;99.90;;;;;;5015798;28;20255;-76
2021/01/21 12:31:16;;;;;;;0.35;0.35;;;9.80;99.90;;;;;;5018968;28;20172;-75
2021/01/21 12:33:42;;;;;;;0.75;0.75;;;9.80;99.90;;;;;;5015070;28;20207;-76
2021/01/21 12:36:07;;;;;;;0.65;0.65;;;9.90;99.90;;;;;;5014653;28;20193;-76
2021/01/21 12:38:33;;;;;;;0.22;0.22;;;9.90;99.90;;;;;;4996868;28;20267;-76
2021/01/21 12:41:00;;;;;;;0.30;0.30;;;9.90;99.90;;;;;;5014772;28;20224;-76
2021/01/21 12:43:25;;;;;;;0.20;0.20;;;9.90;99.90;;;;;;5014457;28;20164;-77
2021/01/21 12:45:52;;;;;;;0.20;0.20;;;9.90;99.90;;;;;;5017325;28;20188;-76
2021/01/21 12:48:18;;;;;;;0.13;0.13;;;9.90;99.90;;;;;;4991309;28;20169;-77
2021/01/21 12:50:46;;;;;;;5.60;0.95;;;9.80;99.90;;;;;;5028954;28;20168;-77
2021/01/21 12:53:12;;;;;;;0.10;0.10;;;9.70;99.90;;;;;;5008719;28;20188;-77
2021/01/21 12:55:38;;;;;;;0.43;0.43;;;9.60;99.90;;;;;;5022078;28;20176;-78
2021/01/21 12:58:04;;;;;;;0.22;0.22;;;9.30;99.90;;;;;;5000276;28;20640;-77
2021/01/21 13:00:30;;;;;;;0.20;0.20;;;9.40;99.90;;;;;;4983925;28;20295;-75
2021/01/21 13:02:56;;;;;;;0.22;0.22;;;9.40;99.90;;;;;;5000620;28;20161;-81
2021/01/21 13:05:21;;;;;;;0.30;0.30;;;9.40;99.90;;;;;;4995898;28;20189;-77
2021/01/21 13:07:47;;;;;;;2.05;0.93;;;9.50;99.90;;;;;;4995760;28;20176;-77